sensor_id;sensor_type;location;lat;lon;timestamp;temperature;humidity
33811;DHT22;20119;48.334;16.206;2023-05-14T02:19:59;11.40;99.90
33811;DHT22;20119;48.334;16.206;2023-05-14T02:22:39;11.30;99.90
33811;DHT22;20119;48.334;16.206;2023-05-14T08:00:54;11.60;99.90
33811;DHT22;20119;48.334;16.206;2023-05-14T08:03:33;11.70;99.90
33811;DHT22;20119;48.334;16.206;2023-05-14T08:06:07;11.70;99.90
33811;DHT22;20119;48.334;16.206;2023-05-14T08:08:47;11.80;99.90
33811;DHT22;20119;48.334;16.206;2023-05-14T08:11:18;12.00;99.90
33811;DHT22;20119;48.334;16.206;2023-05-14T08:14:00;11.90;99.90
33811;DHT22;20119;48.334;16.206;2023-05-14T08:16:50;11.80;99.90
33811;DHT22;20119;48.334;16.206;2023-05-14T08:19:39;11.60;99.90
33811;DHT22;20119;48.334;16.206;2023-05-14T08:24:49;11.50;99.90
33811;DHT22;20119;48.334;16.206;2023-05-14T08:30:04;11.40;99.90
33811;DHT22;20119;48.334;16.206;2023-05-14T08:32:44;11.50;99.90
33811;DHT22;20119;48.334;16.206;2023-05-14T08:48:41;11.40;99.90
33811;DHT22;20119;48.334;16.206;2023-05-14T08:54:15;11.30;99.90
33811;DHT22;20119;48.334;16.206;2023-05-14T08:57:23;11.20;99.90
33811;DHT22;20119;48.334;16.206;2023-05-14T09:05:28;11.10;99.90
33811;DHT22;20119;48.334;16.206;2023-05-14T09:07:58;11.00;99.90
33811;DHT22;20119;48.334;16.206;2023-05-14T09:10:26;11.10;99.90
33811;DHT22;20119;48.334;16.206;2023-05-14T09:12:57;11.00;99.90
33811;DHT22;20119;48.334;16.206;2023-05-14T09:18:00;11.10;99.90
33811;DHT22;20119;48.334;16.206;2023-05-14T09:23:05;11.10;99.90
33811;DHT22;20119;48.334;16.206;2023-05-14T09:25:33;11.00;99.90
33811;DHT22;20119;48.334;16.206;2023-05-14T09:28:05;11.10;99.90
33811;DHT22;20119;48.334;16.206;2023-05-14T09:35:44;11.00;99.90
33811;DHT22;20119;48.334;16.206;2023-05-14T09:38:17;11.00;99.90
33811;DHT22;20119;48.334;16.206;2023-05-14T09:40:45;11.10;99.90
33811;DHT22;20119;48.334;16.206;2023-05-14T09:43:13;11.10;99.90
33811;DHT22;20119;48.334;16.206;2023-05-14T09:45:41;11.00;99.90
33811;DHT22;20119;48.334;16.206;2023-05-14T09:48:15;11.00;99.90
33811;DHT22;20119;48.334;16.206;2023-05-14T09:50:49;11.10;99.90
33811;DHT22;20119;48.334;16.206;2023-05-14T09:53:18;11.00;99.90
33811;DHT22;20119;48.334;16.206;2023-05-14T09:55:46;11.00;99.90
33811;DHT22;20119;48.334;16.206;2023-05-14T09:58:14;11.10;99.90
33811;DHT22;20119;48.334;16.206;2023-05-14T10:00:42;10.90;99.90
33811;DHT22;20119;48.334;16.206;2023-05-14T10:03:12;10.90;99.90
33811;DHT22;20119;48.334;16.206;2023-05-14T10:05:43;11.00;99.90
33811;DHT22;20119;48.334;16.206;2023-05-14T10:08:12;11.10;99.90
33811;DHT22;20119;48.334;16.206;2023-05-14T10:10:47;11.00;99.90
33811;DHT22;20119;48.334;16.206;2023-05-14T10:13:19;11.10;99.90
33811;DHT22;20119;48.334;16.206;2023-05-14T10:18:26;11.10;99.90
33811;DHT22;20119;48.334;16.206;2023-05-14T10:21:04;11.10;99.90
33811;DHT22;20119;48.334;16.206;2023-05-14T10:26:16;11.20;99.90
33811;DHT22;20119;48.334;16.206;2023-05-14T10:39:10;11.40;99.90
33811;DHT22;20119;48.334;16.206;2023-05-14T10:41:41;11.40;99.90
33811;DHT22;20119;48.334;16.206;2023-05-14T10:44:10;11.40;99.90
33811;DHT22;20119;48.334;16.206;2023-05-14T10:46:38;11.30;99.90
33811;DHT22;20119;48.334;16.206;2023-05-14T10:54:17;11.30;99.90
33811;DHT22;20119;48.334;16.206;2023-05-14T10:56:47;11.30;99.90
33811;DHT22;20119;48.334;16.206;2023-05-14T10:59:18;11.20;99.90
33811;DHT22;20119;48.334;16.206;2023-05-14T11:04:22;11.40;99.90
33811;DHT22;20119;48.334;16.206;2023-05-14T11:06:51;11.30;99.90
33811;DHT22;20119;48.334;16.206;2023-05-14T11:09:20;11.30;99.90
33811;DHT22;20119;48.334;16.206;2023-05-14T11:11:50;11.20;99.90
33811;DHT22;20119;48.334;16.206;2023-05-14T11:14:18;11.40;99.90
33811;DHT22;20119;48.334;16.206;2023-05-14T11:16:46;11.40;99.90
33811;DHT22;20119;48.334;16.206;2023-05-14T11:21:49;11.50;99.90
33811;DHT22;20119;48.334;16.206;2023-05-14T11:24:19;11.60;99.90
33811;DHT22;20119;48.334;16.206;2023-05-14T11:26:47;11.60;99.90
33811;DHT22;20119;48.334;16.206;2023-05-14T11:29:21;11.60;99.90
33811;DHT22;20119;48.334;16.206;2023-05-14T11:31:55;11.50;99.90
33811;DHT22;20119;48.334;16.206;2023-05-14T11:42:10;11.50;99.90
33811;DHT22;20119;48.334;16.206;2023-05-14T11:44:47;11.50;99.90
33811;DHT22;20119;48.334;16.206;2023-05-14T11:47:19;11.50;99.90
33811;DHT22;20119;48.334;16.206;2023-05-14T11:49:48;11.50;99.90
33811;DHT22;20119;48.334;16.206;2023-05-14T11:54:57;11.40;99.90
33811;DHT22;20119;48.334;16.206;2023-05-14T11:57:29;11.50;99.90
33811;DHT22;20119;48.334;16.206;2023-05-14T12:00:01;11.50;99.90
33811;DHT22;20119;48.334;16.206;2023-05-14T12:02:30;11.60;99.90
33811;DHT22;20119;48.334;16.206;2023-05-14T12:05:03;11.60;99.90
33811;DHT22;20119;48.334;16.206;2023-05-14T12:07:33;11.80;99.90
33811;DHT22;20119;48.334;16.206;2023-05-14T12:10:02;11.80;99.90
33811;DHT22;20119;48.334;16.206;2023-05-14T12:12:33;11.70;99.90
33811;DHT22;20119;48.334;16.206;2023-05-14T12:15:09;11.80;99.90
33811;DHT22;20119;48.334;16.206;2023-05-14T12:17:38;11.80;99.90
33811;DHT22;20119;48.334;16.206;2023-05-14T12:20:07;11.90;99.90
33811;DHT22;20119;48.334;16.206;2023-05-14T12:22:36;12.10;99.90
33811;DHT22;20119;48.334;16.206;2023-05-14T12:25:08;12.20;99.90
33811;DHT22;20119;48.334;16.206;2023-05-14T12:27:43;12.20;99.90
33811;DHT22;20119;48.334;16.206;2023-05-14T12:30:12;12.20;99.90
33811;DHT22;20119;48.334;16.206;2023-05-14T12:32:41;12.00;99.90
33811;DHT22;20119;48.334;16.206;2023-05-14T12:35:08;12.00;99.90
33811;DHT22;20119;48.334;16.206;2023-05-14T12:40:05;11.80;99.90
33811;DHT22;20119;48.334;16.206;2023-05-14T12:42:36;11.90;99.90
33811;DHT22;20119;48.334;16.206;2023-05-14T12:45:04;11.90;99.90
33811;DHT22;20119;48.334;16.206;2023-05-14T12:47:37;12.00;99.90
33811;DHT22;20119;48.334;16.206;2023-05-14T12:50:05;12.10;99.90
33811;DHT22;20119;48.334;16.206;2023-05-14T12:52:34;12.20;99.90
33811;DHT22;20119;48.334;16.206;2023-05-14T12:55:02;12.00;99.90
33811;DHT22;20119;48.334;16.206;2023-05-14T12:57:30;12.10;99.90
33811;DHT22;20119;48.334;16.206;2023-05-14T13:05:17;12.00;99.90
33811;DHT22;20119;48.334;16.206;2023-05-14T13:12:56;12.00;99.90
33811;DHT22;20119;48.334;16.206;2023-05-14T13:17:59;12.00;99.90
33811;DHT22;20119;48.334;16.206;2023-05-14T13:20:30;11.90;99.90
33811;DHT22;20119;48.334;16.206;2023-05-14T13:25:34;11.90;99.90
33811;DHT22;20119;48.334;16.206;2023-05-14T13:28:03;11.90;99.90
33811;DHT22;20119;48.334;16.206;2023-05-14T13:30:31;11.90;99.90
33811;DHT22;20119;48.334;16.206;2023-05-14T13:33:02;11.90;99.90
33811;DHT22;20119;48.334;16.206;2023-05-14T13:35:37;11.90;99.90
33811;DHT22;20119;48.334;16.206;2023-05-14T13:38:07;11.80;99.90
33811;DHT22;20119;48.334;16.206;2023-05-14T13:40:35;11.90;99.90
33811;DHT22;20119;48.334;16.206;2023-05-14T13:43:04;11.90;99.90
33811;DHT22;20119;48.334;16.206;2023-05-14T13:45:34;12.00;99.90
33811;DHT22;20119;48.334;16.206;2023-05-14T13:48:03;12.10;99.90
33811;DHT22;20119;48.334;16.206;2023-05-14T13:50:40;12.10;99.90
33811;DHT22;20119;48.334;16.206;2023-05-14T13:53:09;12.00;99.90
33811;DHT22;20119;48.334;16.206;2023-05-14T13:58:30;12.10;99.90
33811;DHT22;20119;48.334;16.206;2023-05-14T14:00:58;11.90;99.90
33811;DHT22;20119;48.334;16.206;2023-05-14T14:06:05;12.00;99.90
33811;DHT22;20119;48.334;16.206;2023-05-14T14:11:12;12.00;99.90
33811;DHT22;20119;48.334;16.206;2023-05-14T14:13:43;12.00;99.90
33811;DHT22;20119;48.334;16.206;2023-05-14T14:16:14;12.00;99.90
33811;DHT22;20119;48.334;16.206;2023-05-14T14:18:45;11.90;99.90
33811;DHT22;20119;48.334;16.206;2023-05-14T14:21:19;11.90;99.90
33811;DHT22;20119;48.334;16.206;2023-05-14T14:28:59;12.00;99.90
33811;DHT22;20119;48.334;16.206;2023-05-14T14:31:33;12.10;99.90
33811;DHT22;20119;48.334;16.206;2023-05-14T14:34:04;12.10;99.90
33811;DHT22;20119;48.334;16.206;2023-05-14T14:36:51;12.10;99.90
33811;DHT22;20119;48.334;16.206;2023-05-14T14:39:33;12.10;99.90
33811;DHT22;20119;48.334;16.206;2023-05-14T14:42:09;12.00;99.90
33811;DHT22;20119;48.334;16.206;2023-05-14T14:44:39;12.10;99.90
33811;DHT22;20119;48.334;16.206;2023-05-14T14:47:12;12.20;99.90
33811;DHT22;20119;48.334;16.206;2023-05-14T14:49:44;12.20;99.90
33811;DHT22;20119;48.334;16.206;2023-05-14T14:52:19;12.20;99.90
33811;DHT22;20119;48.334;16.206;2023-05-14T14:54:50;12.20;99.90
33811;DHT22;20119;48.334;16.206;2023-05-14T14:57:29;12.10;99.90
33811;DHT22;20119;48.334;16.206;2023-05-14T15:00:15;12.20;99.90
33811;DHT22;20119;48.334;16.206;2023-05-14T15:05:41;12.10;99.90
33811;DHT22;20119;48.334;16.206;2023-05-14T15:18:50;11.90;99.90
33811;DHT22;20119;48.334;16.206;2023-05-14T15:21:23;12.00;99.90
33811;DHT22;20119;48.334;16.206;2023-05-14T15:23:53;11.90;99.90
33811;DHT22;20119;48.334;16.206;2023-05-14T15:26:22;11.90;99.90
33811;DHT22;20119;48.334;16.206;2023-05-14T15:28:50;11.80;99.90
33811;DHT22;20119;48.334;16.206;2023-05-14T15:31:22;11.80;99.90
33811;DHT22;20119;48.334;16.206;2023-05-14T15:33:53;11.80;99.90
33811;DHT22;20119;48.334;16.206;2023-05-14T15:36:21;11.80;99.90
33811;DHT22;20119;48.334;16.206;2023-05-14T15:51:48;11.80;99.90
33811;DHT22;20119;48.334;16.206;2023-05-14T15:54:20;11.80;99.90
33811;DHT22;20119;48.334;16.206;2023-05-14T16:07:14;11.60;99.90
33811;DHT22;20119;48.334;16.206;2023-05-14T16:09:48;11.60;99.90
33811;DHT22;20119;48.334;16.206;2023-05-14T16:12:17;11.70;99.90
33811;DHT22;20119;48.334;16.206;2023-05-14T16:14:46;11.50;99.90
33811;DHT22;20119;48.334;16.206;2023-05-14T16:17:15;11.50;99.90
33811;DHT22;20119;48.334;16.206;2023-05-14T16:19:43;11.50;99.90
33811;DHT22;20119;48.334;16.206;2023-05-14T16:22:13;11.50;99.90
33811;DHT22;20119;48.334;16.206;2023-05-14T16:24:41;11.60;99.90
33811;DHT22;20119;48.334;16.206;2023-05-14T16:27:11;11.60;99.90
33811;DHT22;20119;48.334;16.206;2023-05-14T16:29:43;11.50;99.90
33811;DHT22;20119;48.334;16.206;2023-05-14T16:32:17;11.60;99.90
33811;DHT22;20119;48.334;16.206;2023-05-14T16:34:46;11.60;99.90
33811;DHT22;20119;48.334;16.206;2023-05-14T16:37:19;11.60;99.90
33811;DHT22;20119;48.334;16.206;2023-05-14T16:39:46;11.50;99.90
33811;DHT22;20119;48.334;16.206;2023-05-14T16:42:18;11.50;99.90
33811;DHT22;20119;48.334;16.206;2023-05-14T16:44:51;11.50;99.90
33811;DHT22;20119;48.334;16.206;2023-05-14T16:49:53;11.50;99.90
33811;DHT22;20119;48.334;16.206;2023-05-14T16:52:26;11.50;99.90
33811;DHT22;20119;48.334;16.206;2023-05-14T16:57:29;11.40;99.90
33811;DHT22;20119;48.334;16.206;2023-05-14T16:59:59;11.50;99.90
33811;DHT22;20119;48.334;16.206;2023-05-14T17:02:31;11.40;99.90
33811;DHT22;20119;48.334;16.206;2023-05-14T17:04:59;11.40;99.90
33811;DHT22;20119;48.334;16.206;2023-05-14T17:07:28;11.40;99.90
33811;DHT22;20119;48.334;16.206;2023-05-14T17:09:57;11.50;99.90
33811;DHT22;20119;48.334;16.206;2023-05-14T17:12:25;11.40;99.90
33811;DHT22;20119;48.334;16.206;2023-05-14T17:14:54;11.40;99.90
33811;DHT22;20119;48.334;16.206;2023-05-14T17:17:21;11.40;99.90
33811;DHT22;20119;48.334;16.206;2023-05-14T17:19:48;11.40;99.90
33811;DHT22;20119;48.334;16.206;2023-05-14T17:22:18;11.40;99.90
33811;DHT22;20119;48.334;16.206;2023-05-14T17:24:48;11.40;99.90
33811;DHT22;20119;48.334;16.206;2023-05-14T17:27:16;11.40;99.90
33811;DHT22;20119;48.334;16.206;2023-05-14T17:29:45;11.40;99.90
33811;DHT22;20119;48.334;16.206;2023-05-14T17:32:16;11.40;99.90
33811;DHT22;20119;48.334;16.206;2023-05-14T17:34:43;11.40;99.90
33811;DHT22;20119;48.334;16.206;2023-05-14T17:37:11;11.40;99.90
33811;DHT22;20119;48.334;16.206;2023-05-14T17:39:40;11.40;99.90
33811;DHT22;20119;48.334;16.206;2023-05-14T17:42:11;11.40;99.90
33811;DHT22;20119;48.334;16.206;2023-05-14T17:44:40;11.40;99.90
33811;DHT22;20119;48.334;16.206;2023-05-14T17:47:10;11.40;99.90
33811;DHT22;20119;48.334;16.206;2023-05-14T17:49:39;11.40;99.90
33811;DHT22;20119;48.334;16.206;2023-05-14T17:52:11;11.40;99.90
33811;DHT22;20119;48.334;16.206;2023-05-14T17:54:39;11.40;99.90
33811;DHT22;20119;48.334;16.206;2023-05-14T17:59:48;11.40;99.90
33811;DHT22;20119;48.334;16.206;2023-05-14T18:02:15;11.40;99.90
33811;DHT22;20119;48.334;16.206;2023-05-14T18:04:42;11.30;99.90
33811;DHT22;20119;48.334;16.206;2023-05-14T18:07:15;11.30;99.90
33811;DHT22;20119;48.334;16.206;2023-05-14T18:09:45;11.30;99.90
33811;DHT22;20119;48.334;16.206;2023-05-14T18:12:14;11.30;99.90
33811;DHT22;20119;48.334;16.206;2023-05-14T18:14:57;11.30;99.90
33811;DHT22;20119;48.334;16.206;2023-05-14T18:17:28;11.30;99.90
33811;DHT22;20119;48.334;16.206;2023-05-14T18:20:00;11.20;99.90
33811;DHT22;20119;48.334;16.206;2023-05-14T18:22:28;11.30;99.90
33811;DHT22;20119;48.334;16.206;2023-05-14T18:25:02;11.30;99.90
33811;DHT22;20119;48.334;16.206;2023-05-14T18:27:30;11.30;99.90
33811;DHT22;20119;48.334;16.206;2023-05-14T18:30:03;11.40;99.90
33811;DHT22;20119;48.334;16.206;2023-05-14T18:32:32;11.40;99.90
33811;DHT22;20119;48.334;16.206;2023-05-14T18:35:01;11.30;99.90
33811;DHT22;20119;48.334;16.206;2023-05-14T18:37:29;11.30;99.90
33811;DHT22;20119;48.334;16.206;2023-05-14T18:39:58;11.30;99.90
33811;DHT22;20119;48.334;16.206;2023-05-14T18:42:27;11.20;99.90
33811;DHT22;20119;48.334;16.206;2023-05-14T18:44:55;11.30;99.90
33811;DHT22;20119;48.334;16.206;2023-05-14T18:47:29;11.40;99.90
33811;DHT22;20119;48.334;16.206;2023-05-14T18:49:57;11.40;99.90
33811;DHT22;20119;48.334;16.206;2023-05-14T18:52:26;11.40;99.90
33811;DHT22;20119;48.334;16.206;2023-05-14T18:57:29;11.40;99.90
33811;DHT22;20119;48.334;16.206;2023-05-14T19:00:00;11.40;99.90
33811;DHT22;20119;48.334;16.206;2023-05-14T19:02:32;11.30;99.90
33811;DHT22;20119;48.334;16.206;2023-05-14T19:05:00;11.30;99.90
33811;DHT22;20119;48.334;16.206;2023-05-14T19:07:28;11.30;99.90
33811;DHT22;20119;48.334;16.206;2023-05-14T19:09:56;11.20;99.90
33811;DHT22;20119;48.334;16.206;2023-05-14T19:41:22;11.30;99.90
33811;DHT22;20119;48.334;16.206;2023-05-14T20:49:01;11.30;99.90
33811;DHT22;20119;48.334;16.206;2023-05-14T20:51:47;11.20;99.90
33811;DHT22;20119;48.334;16.206;2023-05-14T22:23:52;11.30;99.90
33811;DHT22;20119;48.334;16.206;2023-05-14T22:26:38;11.30;99.90
